Time;durP1;ratioP1;P1;durP2;ratioP2;P2;SDS_P1;SDS_P2;PMS_P1;PMS_P2;Temp;Humidity;BMP_temperature;BMP_pressure;BME280_temperature;BME280_humidity;BME280_pressure;Samples;Min_cycle;Max_cycle;Signal;HPM_P1;HPM_P2
2023/02/25 00:00:09;;;;;;;1.65;1.55;;;;;;;;;;5023919;28;20241;-81
2023/02/25 00:02:38;;;;;;;1.55;1.45;;;;;;;;;;5019099;28;20291;-82
2023/02/25 00:05:06;;;;;;;1.10;1.00;;;;;;;;;;5016300;28;20606;-81
2023/02/25 00:07:39;;;;;;;1.25;1.15;;;;;;;;;;5024571;28;20245;-81
2023/02/25 00:10:10;;;;;;;1.20;1.10;;;;;;;;;;5009190;28;20223;-79
2023/02/25 00:12:38;;;;;;;1.52;1.42;;;;;;;;;;5003238;28;20232;-81
2023/02/25 00:15:06;;;;;;;1.25;1.15;;;;;;;;;;5002568;28;20230;-79
2023/02/25 00:17:48;;;;;;;1.10;1.00;;;;;;;;;;5003983;28;20234;-79
2023/02/25 00:20:19;;;;;;;1.27;1.17;;;;;;;;;;5007312;28;20229;-80
2023/02/25 00:22:48;;;;;;;1.17;1.08;;;;;;;;;;5023838;28;20606;-80
2023/02/25 00:25:18;;;;;;;1.35;1.25;;;;;;;;;;5005930;28;20222;-80
2023/02/25 00:27:51;;;;;;;0.80;0.70;;;;;;;;;;5025973;28;20261;-81
2023/02/25 00:30:20;;;;;;;1.23;1.13;;;;;;;;;;5022437;28;20323;-80
2023/02/25 00:32:55;;;;;;;0.85;0.85;;;;;;;;;;5025671;28;20300;-80
2023/02/25 00:35:25;;;;;;;1.10;1.00;;;;;;;;;;5024004;28;20314;-81
2023/02/25 00:38:02;;;;;;;1.10;1.00;;;;;;;;;;5024084;28;20236;-82
2023/02/25 00:40:32;;;;;;;1.42;1.33;;;;;;;;;;5025552;28;20236;-79
2023/02/25 00:42:59;;;;;;;1.08;0.98;;;;;;;;;;5025130;28;20220;-81
2023/02/25 00:45:27;;;;;;;1.10;1.00;;;;;;;;;;5023022;28;20329;-81
2023/02/25 00:47:55;;;;;;;0.80;0.80;;;;;;;;;;5024636;28;20266;-81
2023/02/25 00:50:22;;;;;;;1.00;0.95;;;;;;;;;;5022533;28;20240;-81
2023/02/25 00:52:51;;;;;;;0.70;0.70;;;;;;;;;;5024316;28;20227;-83
2023/02/25 00:55:19;;;;;;;0.70;0.60;;;;;;;;;;5021114;28;20241;-79
2023/02/25 00:57:48;;;;;;;0.77;0.77;;;;;;;;;;5024306;28;20699;-82
2023/02/25 01:00:17;;;;;;;0.70;0.70;;;;;;;;;;5023586;28;20246;-81
2023/02/25 01:02:47;;;;;;;0.95;0.95;;;;;;;;;;5023306;28;20235;-82
2023/02/25 01:05:16;;;;;;;0.80;0.60;;;;;;;;;;5022307;28;20242;-83
2023/02/25 01:07:44;;;;;;;0.90;0.90;;;;;;;;;;5023819;28;20276;-81
2023/02/25 01:10:12;;;;;;;0.88;0.88;;;;;;;;;;5022119;28;20235;-81
2023/02/25 01:12:39;;;;;;;0.80;0.80;;;;;;;;;;5024741;28;20289;-82
2023/02/25 01:15:09;;;;;;;0.50;0.40;;;;;;;;;;5021920;28;20543;-81
2023/02/25 01:17:37;;;;;;;0.70;0.70;;;;;;;;;;5024641;28;20222;-82
2023/02/25 01:20:10;;;;;;;0.60;0.60;;;;;;;;;;5023112;28;20228;-82
2023/02/25 01:22:40;;;;;;;1.00;1.00;;;;;;;;;;5022675;28;20274;-81
2023/02/25 01:25:09;;;;;;;0.60;0.60;;;;;;;;;;5024754;28;20229;-81
2023/02/25 01:27:37;;;;;;;0.70;0.70;;;;;;;;;;5023573;28;20240;-82
2023/02/25 01:30:05;;;;;;;0.60;0.60;;;;;;;;;;5025029;28;20231;-79
2023/02/25 01:32:34;;;;;;;0.80;0.80;;;;;;;;;;5022779;28;20230;-82
2023/02/25 01:35:02;;;;;;;0.60;0.60;;;;;;;;;;5025619;28;20575;-82
2023/02/25 01:37:30;;;;;;;0.65;0.65;;;;;;;;;;5023575;28;20226;-81
2023/02/25 01:39:57;;;;;;;0.50;0.50;;;;;;;;;;5024192;28;20632;-79
2023/02/25 01:42:25;;;;;;;0.70;0.70;;;;;;;;;;5023816;28;20224;-82
2023/02/25 01:45:23;;;;;;;0.70;0.70;;;;;;;;;;5021098;28;20514;-81
2023/02/25 01:47:55;;;;;;;1.00;1.00;;;;;;;;;;5021755;28;20243;-82
2023/02/25 01:50:26;;;;;;;0.65;0.60;;;;;;;;;;5020356;28;20224;-82
2023/02/25 01:52:54;;;;;;;0.60;0.50;;;;;;;;;;5024588;28;20235;-81
2023/02/25 01:55:24;;;;;;;0.60;0.60;;;;;;;;;;5025868;28;20233;-78
2023/02/25 01:57:52;;;;;;;0.52;0.52;;;;;;;;;;5025974;28;20224;-79
2023/02/25 02:00:22;;;;;;;0.70;0.70;;;;;;;;;;5027365;28;20238;-80
2023/02/25 02:02:49;;;;;;;0.50;0.50;;;;;;;;;;5024382;28;20235;-81
2023/02/25 02:05:19;;;;;;;0.50;0.45;;;;;;;;;;5025215;28;20245;-80
2023/02/25 02:07:49;;;;;;;0.70;0.70;;;;;;;;;;5024187;28;20220;-80
2023/02/25 02:10:18;;;;;;;0.50;0.50;;;;;;;;;;5025007;28;20288;-81
2023/02/25 02:12:48;;;;;;;0.35;0.35;;;;;;;;;;5023403;28;20617;-81
2023/02/25 02:15:16;;;;;;;0.40;0.40;;;;;;;;;;5024770;28;20229;-81
2023/02/25 02:17:46;;;;;;;0.50;0.50;;;;;;;;;;5023269;28;20235;-81
2023/02/25 02:20:19;;;;;;;0.47;0.47;;;;;;;;;;5024193;28;20230;-80
2023/02/25 02:23:02;;;;;;;0.43;0.43;;;;;;;;;;5024419;28;20230;-81
2023/02/25 02:25:54;;;;;;;0.50;0.50;;;;;;;;;;5025108;28;20661;-80
2023/02/25 02:28:32;;;;;;;0.40;0.40;;;;;;;;;;5024176;28;20308;-80
2023/02/25 02:31:12;;;;;;;0.50;0.50;;;;;;;;;;5022254;28;20229;-81
2023/02/25 02:33:45;;;;;;;0.65;0.65;;;;;;;;;;5023993;28;20250;-81
2023/02/25 02:36:17;;;;;;;0.75;0.75;;;;;;;;;;5023480;28;20240;-81
2023/02/25 02:38:47;;;;;;;0.40;0.40;;;;;;;;;;5023584;28;20235;-81
2023/02/25 02:41:18;;;;;;;0.43;0.43;;;;;;;;;;5024801;28;20238;-80
2023/02/25 02:43:50;;;;;;;0.63;0.63;;;;;;;;;;5021573;28;20237;-80
2023/02/25 02:46:22;;;;;;;0.47;0.47;;;;;;;;;;5024276;28;20220;-81
2023/02/25 02:48:52;;;;;;;0.50;0.50;;;;;;;;;;5022533;28;20242;-79
2023/02/25 02:51:22;;;;;;;0.40;0.40;;;;;;;;;;5026083;28;20561;-80
2023/02/25 02:53:52;;;;;;;0.60;0.60;;;;;;;;;;5022884;28;20497;-79
2023/02/25 02:56:21;;;;;;;0.70;0.70;;;;;;;;;;5023266;28;20261;-81
2023/02/25 02:58:51;;;;;;;0.32;0.32;;;;;;;;;;5022300;28;20285;-81
2023/02/25 03:01:22;;;;;;;0.30;0.30;;;;;;;;;;5023223;28;20575;-82
2023/02/25 03:03:52;;;;;;;0.43;0.40;;;;;;;;;;5022013;28;20502;-81
2023/02/25 03:06:22;;;;;;;0.82;0.82;;;;;;;;;;5023624;28;20298;-81
2023/02/25 03:08:59;;;;;;;0.47;0.47;;;;;;;;;;5022604;28;20626;-82
2023/02/25 03:11:28;;;;;;;0.75;0.75;;;;;;;;;;5023620;28;20643;-80
2023/02/25 03:13:56;;;;;;;0.70;0.60;;;;;;;;;;5024101;28;20232;-80
2023/02/25 03:16:26;;;;;;;0.70;0.60;;;;;;;;;;5021736;28;20289;-81
2023/02/25 03:19:00;;;;;;;0.80;0.80;;;;;;;;;;5023072;28;20545;-82
2023/02/25 03:21:31;;;;;;;0.80;0.70;;;;;;;;;;5021848;28;20234;-81
2023/02/25 03:23:59;;;;;;;1.17;1.08;;;;;;;;;;5023166;28;20232;-81
2023/02/25 03:26:28;;;;;;;0.90;0.80;;;;;;;;;;5022304;28;20242;-81
2023/02/25 03:28:58;;;;;;;0.93;0.85;;;;;;;;;;5022152;28;20260;-81
2023/02/25 03:31:30;;;;;;;1.25;1.15;;;;;;;;;;5023981;28;20258;-81
2023/02/25 03:34:00;;;;;;;1.35;1.25;;;;;;;;;;5022287;28;20232;-81
2023/02/25 03:36:31;;;;;;;1.17;1.08;;;;;;;;;;5023870;28;20600;-81
2023/02/25 03:38:59;;;;;;;0.80;0.80;;;;;;;;;;5022398;28;20229;-80
2023/02/25 03:41:30;;;;;;;0.80;0.70;;;;;;;;;;5021351;28;20244;-80
2023/02/25 03:43:59;;;;;;;0.88;0.80;;;;;;;;;;5021689;28;20243;-81
2023/02/25 03:46:28;;;;;;;1.10;1.00;;;;;;;;;;5021020;28;20241;-81
2023/02/25 03:48:57;;;;;;;1.35;1.25;;;;;;;;;;5023268;28;20244;-81
2023/02/25 03:51:28;;;;;;;0.80;0.80;;;;;;;;;;5021556;28;20295;-81
2023/02/25 03:53:55;;;;;;;1.42;1.33;;;;;;;;;;5023031;28;20300;-81
2023/02/25 03:56:23;;;;;;;0.80;0.80;;;;;;;;;;5021180;28;20259;-81
2023/02/25 03:58:51;;;;;;;1.60;1.50;;;;;;;;;;5023932;28;20223;-81
2023/02/25 04:01:20;;;;;;;1.10;1.00;;;;;;;;;;5021543;28;20301;-80
2023/02/25 04:03:49;;;;;;;1.35;1.25;;;;;;;;;;5022484;28;20530;-81
2023/02/25 04:06:16;;;;;;;1.23;1.13;;;;;;;;;;5020678;28;20212;-81
2023/02/25 04:08:44;;;;;;;1.02;0.93;;;;;;;;;;5023562;28;20240;-80
2023/02/25 04:11:12;;;;;;;1.58;1.48;;;;;;;;;;5020677;28;20284;-81
2023/02/25 04:13:39;;;;;;;1.10;1.00;;;;;;;;;;5022767;28;20286;-81
2023/02/25 04:16:08;;;;;;;2.28;2.17;;;;;;;;;;5021245;28;20247;-81
2023/02/25 04:18:35;;;;;;;1.63;1.52;;;;;;;;;;5022708;28;20235;-81
2023/02/25 04:21:07;;;;;;;0.90;0.80;;;;;;;;;;5024954;28;20229;-80
2023/02/25 04:23:35;;;;;;;0.98;0.88;;;;;;;;;;5020898;28;20236;-80
2023/02/25 04:26:02;;;;;;;1.92;1.83;;;;;;;;;;5023229;28;20231;-82
2023/02/25 04:28:30;;;;;;;0.80;0.77;;;;;;;;;;5021352;28;20246;-79
2023/02/25 04:30:58;;;;;;;0.90;0.80;;;;;;;;;;5022467;28;20243;-81
2023/02/25 04:33:25;;;;;;;1.65;1.55;;;;;;;;;;5021875;28;20234;-81
2023/02/25 04:35:53;;;;;;;0.98;0.88;;;;;;;;;;5021930;28;20243;-80
2023/02/25 04:38:22;;;;;;;1.00;0.90;;;;;;;;;;5022414;28;20255;-81
2023/02/25 04:40:52;;;;;;;0.80;0.70;;;;;;;;;;5021657;28;20251;-81
2023/02/25 04:43:19;;;;;;;1.00;0.90;;;;;;;;;;5022015;28;20571;-80
2023/02/25 04:45:48;;;;;;;1.10;1.00;;;;;;;;;;5021925;28;20228;-82
2023/02/25 04:48:20;;;;;;;0.90;0.80;;;;;;;;;;5021954;28;20317;-80
2023/02/25 04:50:48;;;;;;;1.00;0.90;;;;;;;;;;5020423;28;20229;-81
2023/02/25 04:53:16;;;;;;;1.10;1.00;;;;;;;;;;5022419;28;20239;-79
2023/02/25 04:55:45;;;;;;;1.10;1.00;;;;;;;;;;5021716;28;20233;-80
2023/02/25 04:58:13;;;;;;;1.00;0.90;;;;;;;;;;5023185;28;20230;-81
2023/02/25 05:00:46;;;;;;;1.27;1.17;;;;;;;;;;5021509;28;20290;-81
2023/02/25 05:03:13;;;;;;;0.90;0.80;;;;;;;;;;5021115;28;20465;-81
2023/02/25 05:05:41;;;;;;;1.20;1.10;;;;;;;;;;5021869;28;20302;-81
2023/02/25 05:08:09;;;;;;;1.00;0.95;;;;;;;;;;5020954;28;20518;-81
2023/02/25 05:10:36;;;;;;;1.17;1.08;;;;;;;;;;5023346;28;20249;-81
2023/02/25 05:13:05;;;;;;;0.80;0.70;;;;;;;;;;5022309;28;20232;-82
2023/02/25 05:15:33;;;;;;;0.80;0.80;;;;;;;;;;5023812;28;20237;-80
2023/02/25 05:18:01;;;;;;;0.70;0.65;;;;;;;;;;5020870;28;20233;-81
2023/02/25 05:20:31;;;;;;;0.80;0.80;;;;;;;;;;5020961;28;20231;-80
2023/02/25 05:22:59;;;;;;;0.60;0.60;;;;;;;;;;5022954;28;20231;-80
2023/02/25 05:25:27;;;;;;;0.68;0.65;;;;;;;;;;5023686;28;20262;-81
2023/02/25 05:27:54;;;;;;;0.75;0.75;;;;;;;;;;5022259;28;20231;-81
2023/02/25 05:30:23;;;;;;;0.80;0.80;;;;;;;;;;5026635;28;20250;-81
2023/02/25 05:32:51;;;;;;;0.70;0.70;;;;;;;;;;5024680;28;20288;-81
2023/02/25 05:35:19;;;;;;;1.25;1.25;;;;;;;;;;5025806;28;20255;-81
2023/02/25 05:37:47;;;;;;;0.55;0.50;;;;;;;;;;5024332;28;20233;-81
2023/02/25 05:40:15;;;;;;;0.50;0.50;;;;;;;;;;5024267;28;20627;-82
2023/02/25 05:42:42;;;;;;;0.60;0.60;;;;;;;;;;5022997;28;20588;-80
2023/02/25 05:45:11;;;;;;;0.57;0.50;;;;;;;;;;5025580;28;20581;-82
2023/02/25 05:47:40;;;;;;;0.60;0.60;;;;;;;;;;5024100;28;20229;-81
2023/02/25 05:50:08;;;;;;;0.68;0.63;;;;;;;;;;5024450;28;20246;-82
2023/02/25 05:52:36;;;;;;;0.80;0.80;;;;;;;;;;5023136;28;20245;-80
2023/02/25 05:55:04;;;;;;;0.77;0.77;;;;;;;;;;5024564;28;20254;-82
2023/02/25 05:57:31;;;;;;;0.70;0.60;;;;;;;;;;5024021;28;20241;-81
2023/02/25 06:00:00;;;;;;;0.70;0.70;;;;;;;;;;5024471;28;20219;-80
2023/02/25 06:02:28;;;;;;;0.70;0.60;;;;;;;;;;5023479;28;20239;-80
2023/02/25 06:04:57;;;;;;;1.17;1.08;;;;;;;;;;5024218;28;20229;-81
2023/02/25 06:07:25;;;;;;;1.00;0.90;;;;;;;;;;5025093;28;20460;-80
2023/02/25 06:09:53;;;;;;;1.08;0.98;;;;;;;;;;5024003;28;20250;-80
2023/02/25 06:12:21;;;;;;;1.75;1.65;;;;;;;;;;5024552;28;20308;-81
2023/02/25 06:14:48;;;;;;;1.00;0.90;;;;;;;;;;5025094;28;20231;-80
2023/02/25 06:17:16;;;;;;;1.00;0.90;;;;;;;;;;5024783;28;20240;-80
2023/02/25 06:19:44;;;;;;;1.10;1.00;;;;;;;;;;5027011;28;20231;-81
2023/02/25 06:22:14;;;;;;;0.80;0.80;;;;;;;;;;5022708;28;20271;-80
2023/02/25 06:24:42;;;;;;;1.42;1.33;;;;;;;;;;5027864;28;20232;-82
2023/02/25 06:27:10;;;;;;;1.05;0.95;;;;;;;;;;5022375;28;20566;-79
2023/02/25 06:29:40;;;;;;;1.10;1.00;;;;;;;;;;5026638;28;20259;-81
2023/02/25 06:32:08;;;;;;;0.90;0.80;;;;;;;;;;5022766;28;20266;-80
2023/02/25 06:34:36;;;;;;;1.23;1.13;;;;;;;;;;5026255;28;20235;-81
2023/02/25 06:37:04;;;;;;;2.75;2.65;;;;;;;;;;5022716;28;20232;-80
2023/02/25 06:39:34;;;;;;;1.00;0.90;;;;;;;;;;5024204;28;20229;-80
2023/02/25 06:42:01;;;;;;;1.60;1.50;;;;;;;;;;5021317;28;20229;-81
2023/02/25 06:44:29;;;;;;;1.13;1.02;;;;;;;;;;5023599;28;20244;-81
2023/02/25 06:46:57;;;;;;;1.00;0.90;;;;;;;;;;5021710;28;20241;-81
2023/02/25 06:49:25;;;;;;;1.75;1.65;;;;;;;;;;5022994;28;20251;-81
2023/02/25 06:51:52;;;;;;;1.55;1.45;;;;;;;;;;5024403;28;20555;-81
2023/02/25 06:54:20;;;;;;;0.80;0.70;;;;;;;;;;5023302;28;20231;-81
2023/02/25 06:56:49;;;;;;;1.05;0.95;;;;;;;;;;5022428;28;20238;-81
2023/02/25 06:59:17;;;;;;;1.30;1.20;;;;;;;;;;5022075;28;20229;-80
2023/02/25 07:01:45;;;;;;;1.40;1.30;;;;;;;;;;5021774;28;20229;-80
2023/02/25 07:04:15;;;;;;;1.25;1.15;;;;;;;;;;5020571;28;20231;-82
2023/02/25 07:06:42;;;;;;;1.13;1.02;;;;;;;;;;5021500;28;20249;-80
2023/02/25 07:09:10;;;;;;;1.42;1.33;;;;;;;;;;5019882;28;20293;-81
2023/02/25 07:11:38;;;;;;;2.10;2.00;;;;;;;;;;5020990;28;20259;-81
2023/02/25 07:14:07;;;;;;;2.10;2.00;;;;;;;;;;5021300;28;20626;-81
2023/02/25 07:16:35;;;;;;;1.10;1.00;;;;;;;;;;5021267;28;20301;-81
2023/02/25 07:19:03;;;;;;;1.27;1.17;;;;;;;;;;5021780;28;20293;-81
2023/02/25 07:21:32;;;;;;;1.38;1.27;;;;;;;;;;5022216;28;20241;-80
2023/02/25 07:24:00;;;;;;;1.20;1.10;;;;;;;;;;5022185;28;20233;-82
2023/02/25 07:26:28;;;;;;;1.50;1.40;;;;;;;;;;5018737;28;20340;-81
2023/02/25 07:28:56;;;;;;;1.17;1.05;;;;;;;;;;5022211;28;20362;-82
2023/02/25 07:31:26;;;;;;;2.00;1.90;;;;;;;;;;5022898;28;20285;-81
2023/02/25 07:33:55;;;;;;;2.70;2.55;;;;;;;;;;5022126;28;20634;-81
2023/02/25 07:36:26;;;;;;;1.25;1.15;;;;;;;;;;5021726;28;20241;-81
2023/02/25 07:38:55;;;;;;;1.92;1.83;;;;;;;;;;5024993;28;20222;-81
2023/02/25 07:41:23;;;;;;;1.15;1.05;;;;;;;;;;5020295;28;20234;-81
2023/02/25 07:43:51;;;;;;;0.90;0.80;;;;;;;;;;5022862;28;20579;-78
2023/02/25 07:46:19;;;;;;;1.70;1.60;;;;;;;;;;5013342;28;20229;-80
2023/02/25 07:48:48;;;;;;;1.20;1.10;;;;;;;;;;5005835;28;20653;-81
2023/02/25 07:51:17;;;;;;;1.88;1.77;;;;;;;;;;5020347;28;20251;-81
2023/02/25 07:53:46;;;;;;;1.40;1.30;;;;;;;;;;5019562;28;20254;-80
2023/02/25 07:56:17;;;;;;;1.65;1.55;;;;;;;;;;5020101;28;20229;-81
2023/02/25 07:58:45;;;;;;;1.30;1.20;;;;;;;;;;5020706;28;20233;-81
2023/02/25 08:01:14;;;;;;;1.67;1.58;;;;;;;;;;5020106;28;20259;-81
2023/02/25 08:03:41;;;;;;;1.88;1.77;;;;;;;;;;5019881;28;20244;-81
2023/02/25 08:06:10;;;;;;;3.08;2.88;;;;;;;;;;5020067;28;20240;-81
2023/02/25 08:08:39;;;;;;;2.33;2.22;;;;;;;;;;5020585;28;20242;-81
2023/02/25 08:11:10;;;;;;;0.90;0.80;;;;;;;;;;5023339;28;20793;-81
2023/02/25 08:13:38;;;;;;;1.35;1.25;;;;;;;;;;5022312;28;20249;-81
2023/02/25 08:16:06;;;;;;;1.77;1.67;;;;;;;;;;5023148;28;20577;-80
2023/02/25 08:18:34;;;;;;;1.58;1.48;;;;;;;;;;5020213;28;20224;-80
2023/02/25 08:21:03;;;;;;;1.38;1.27;;;;;;;;;;5023632;28;20608;-80
2023/02/25 08:23:32;;;;;;;1.67;1.58;;;;;;;;;;5021796;28;20225;-81
2023/02/25 08:26:00;;;;;;;1.88;1.77;;;;;;;;;;5021043;28;20232;-80
2023/02/25 08:28:30;;;;;;;1.55;1.45;;;;;;;;;;5021302;28;20494;-80
2023/02/25 08:30:58;;;;;;;2.38;2.28;;;;;;;;;;5019700;28;20307;-80
2023/02/25 08:33:26;;;;;;;2.00;1.90;;;;;;;;;;5021687;28;20236;-80
2023/02/25 08:35:54;;;;;;;2.42;2.33;;;;;;;;;;5021909;28;20233;-82
2023/02/25 08:38:27;;;;;;;1.30;1.20;;;;;;;;;;5017006;28;20233;-81
2023/02/25 08:41:03;;;;;;;1.92;1.83;;;;;;;;;;5020376;28;20226;-79
2023/02/25 08:43:30;;;;;;;1.58;1.48;;;;;;;;;;5019617;28;20328;-82
2023/02/25 08:45:58;;;;;;;1.83;1.73;;;;;;;;;;5021440;28;20693;-81
2023/02/25 08:48:26;;;;;;;1.75;1.65;;;;;;;;;;5019695;28;20331;-82
2023/02/25 08:50:54;;;;;;;1.15;1.05;;;;;;;;;;5013760;28;20250;-81
2023/02/25 08:53:31;;;;;;;1.55;1.45;;;;;;;;;;5000409;28;20290;-81
2023/02/25 08:56:04;;;;;;;2.60;2.50;;;;;;;;;;5004371;28;20241;-81
2023/02/25 08:58:31;;;;;;;2.78;2.65;;;;;;;;;;5017479;28;20236;-81
2023/02/25 09:00:59;;;;;;;2.20;2.10;;;;;;;;;;5023275;28;20230;-81
2023/02/25 09:03:27;;;;;;;4.38;4.18;;;;;;;;;;5022232;28;20223;-81
2023/02/25 09:05:55;;;;;;;3.58;3.38;;;;;;;;;;5027913;28;20256;-79
2023/02/25 09:08:24;;;;;;;5.60;5.30;;;;;;;;;;5023279;28;20236;-80
2023/02/25 09:10:51;;;;;;;5.30;5.00;;;;;;;;;;5017722;28;20954;-79
2023/02/25 09:13:20;;;;;;;3.08;2.90;;;;;;;;;;5012797;28;20253;-80
2023/02/25 09:15:56;;;;;;;2.50;2.40;;;;;;;;;;5021957;28;20229;-80
2023/02/25 09:18:23;;;;;;;2.72;2.63;;;;;;;;;;5014243;28;20285;-81
2023/02/25 09:20:51;;;;;;;3.42;3.22;;;;;;;;;;5008465;28;20238;-80
2023/02/25 09:23:22;;;;;;;1.92;1.83;;;;;;;;;;5022495;28;20294;-80
2023/02/25 09:25:49;;;;;;;1.95;1.85;;;;;;;;;;5015546;28;20325;-81
2023/02/25 09:28:17;;;;;;;3.00;2.90;;;;;;;;;;5012496;28;20237;-80
2023/02/25 09:30:48;;;;;;;2.13;2.03;;;;;;;;;;5026936;28;20243;-81
2023/02/25 09:33:16;;;;;;;3.00;2.85;;;;;;;;;;5016474;28;20228;-80
2023/02/25 09:35:46;;;;;;;1.60;1.50;;;;;;;;;;5011354;28;20503;-81
2023/02/25 09:38:13;;;;;;;2.53;2.42;;;;;;;;;;5023955;28;20229;-78
2023/02/25 09:40:42;;;;;;;2.35;2.25;;;;;;;;;;5023354;28;20282;-80
2023/02/25 09:43:16;;;;;;;2.10;2.00;;;;;;;;;;5015644;28;20279;-80
2023/02/25 09:45:46;;;;;;;2.80;2.70;;;;;;;;;;5017046;28;20224;-80
2023/02/25 09:48:20;;;;;;;2.30;2.20;;;;;;;;;;5015597;28;20292;-80
2023/02/25 09:50:50;;;;;;;1.80;1.70;;;;;;;;;;5002852;28;20915;-80
2023/02/25 09:53:21;;;;;;;3.17;3.08;;;;;;;;;;5017886;28;20602;-80
2023/02/25 09:55:49;;;;;;;2.42;2.33;;;;;;;;;;5015286;28;20234;-80
2023/02/25 09:58:22;;;;;;;2.53;2.42;;;;;;;;;;5019822;28;20244;-80
2023/02/25 10:00:56;;;;;;;3.25;3.13;;;;;;;;;;5015083;28;20232;-79
2023/02/25 10:03:30;;;;;;;4.55;4.35;;;;;;;;;;5013174;28;20225;-79
2023/02/25 10:06:02;;;;;;;1.77;1.67;;;;;;;;;;5022482;28;20235;-78
2023/02/25 10:08:35;;;;;;;2.03;1.92;;;;;;;;;;5019394;28;20281;-80
2023/02/25 10:11:06;;;;;;;2.45;2.35;;;;;;;;;;5021394;28;20249;-80
2023/02/25 10:13:43;;;;;;;1.35;1.27;;;;;;;;;;5015228;28;20225;-79
2023/02/25 10:16:25;;;;;;;3.72;3.53;;;;;;;;;;5022477;28;20240;-79
2023/02/25 10:19:07;;;;;;;2.33;2.22;;;;;;;;;;5012995;28;20227;-80
2023/02/25 10:21:47;;;;;;;4.55;4.35;;;;;;;;;;5011168;28;20325;-79
2023/02/25 10:24:45;;;;;;;1.95;1.85;;;;;;;;;;5020023;28;20226;-80
2023/02/25 10:27:17;;;;;;;3.08;2.97;;;;;;;;;;5023019;28;20289;-80
2023/02/25 10:29:49;;;;;;;6.10;5.90;;;;;;;;;;5012716;28;20237;-80
2023/02/25 10:32:19;;;;;;;2.38;2.28;;;;;;;;;;5015553;28;20253;-80
2023/02/25 10:34:50;;;;;;;2.55;2.45;;;;;;;;;;5016319;28;20646;-80
2023/02/25 10:37:31;;;;;;;3.17;3.08;;;;;;;;;;5016050;28;20277;-79
2023/02/25 10:40:00;;;;;;;1.83;1.73;;;;;;;;;;5017563;28;20325;-79
2023/02/25 10:42:27;;;;;;;3.13;3.03;;;;;;;;;;5018944;28;20502;-80
2023/02/25 10:44:56;;;;;;;4.28;4.10;;;;;;;;;;5007292;28;20223;-79
2023/02/25 10:47:28;;;;;;;1.60;1.55;;;;;;;;;;5020860;28;20317;-79
2023/02/25 10:50:13;;;;;;;3.47;3.38;;;;;;;;;;5014409;28;20257;-80
2023/02/25 10:52:54;;;;;;;2.95;2.85;;;;;;;;;;5018058;28;20263;-80
2023/02/25 10:55:32;;;;;;;2.10;2.00;;;;;;;;;;5012300;28;20308;-80
2023/02/25 10:58:01;;;;;;;2.40;2.30;;;;;;;;;;5018490;28;20281;-79
2023/02/25 11:00:32;;;;;;;1.95;1.85;;;;;;;;;;5018728;28;20231;-78
2023/02/25 11:03:04;;;;;;;4.30;4.10;;;;;;;;;;5016023;28;20225;-79
2023/02/25 11:05:34;;;;;;;2.22;2.13;;;;;;;;;;5018309;28;20240;-80
2023/02/25 11:08:06;;;;;;;4.75;4.55;;;;;;;;;;5022629;28;20240;-81
2023/02/25 11:10:35;;;;;;;3.90;3.70;;;;;;;;;;5019648;28;20300;-79
2023/02/25 11:13:04;;;;;;;3.28;3.17;;;;;;;;;;5018871;28;20246;-79
2023/02/25 11:15:36;;;;;;;2.45;2.35;;;;;;;;;;5010744;28;20231;-79
2023/02/25 11:18:09;;;;;;;3.80;3.67;;;;;;;;;;5020482;28;20237;-81
2023/02/25 11:20:37;;;;;;;3.30;3.20;;;;;;;;;;5013187;28;20231;-79
2023/02/25 11:23:23;;;;;;;3.75;3.65;;;;;;;;;;5011560;28;20849;-79
2023/02/25 11:25:56;;;;;;;2.22;2.13;;;;;;;;;;5017956;28;20241;-80
2023/02/25 11:28:36;;;;;;;2.50;2.40;;;;;;;;;;5017808;28;20286;-79
2023/02/25 11:31:08;;;;;;;3.28;3.17;;;;;;;;;;5012106;28;20235;-80
2023/02/25 11:33:40;;;;;;;5.30;5.10;;;;;;;;;;5014021;28;20229;-81
2023/02/25 11:36:10;;;;;;;4.15;3.95;;;;;;;;;;5018729;28;20228;-79
2023/02/25 11:38:57;;;;;;;3.10;2.97;;;;;;;;;;5018452;28;20235;-78
2023/02/25 11:41:33;;;;;;;3.97;3.78;;;;;;;;;;5024229;28;20243;-77
2023/02/25 11:44:19;;;;;;;3.78;3.58;;;;;;;;;;5019136;28;20606;-79
2023/02/25 11:46:52;;;;;;;2.03;1.92;;;;;;;;;;5007963;28;20221;-80
2023/02/25 11:49:45;;;;;;;3.75;3.55;;;;;;;;;;5021887;28;20252;-79
2023/02/25 11:52:31;;;;;;;3.47;3.28;;;;;;;;;;5017807;28;20247;-80
2023/02/25 11:55:11;;;;;;;2.90;2.78;;;;;;;;;;5019434;28;20589;-78
2023/02/25 11:57:47;;;;;;;3.53;3.33;;;;;;;;;;5020348;28;20266;-80
2023/02/25 12:00:24;;;;;;;2.28;2.17;;;;;;;;;;5018677;28;20274;-79
2023/02/25 12:03:02;;;;;;;3.28;3.10;;;;;;;;;;5022619;28;20225;-79
2023/02/25 12:05:46;;;;;;;2.83;2.72;;;;;;;;;;5027976;28;20652;-80
2023/02/25 12:08:31;;;;;;;3.35;3.15;;;;;;;;;;5019659;28;20230;-80
2023/02/25 12:11:18;;;;;;;1.75;1.65;;;;;;;;;;5020991;28;20239;-80
2023/02/25 12:14:09;;;;;;;4.05;3.85;;;;;;;;;;5021883;28;20247;-80
2023/02/25 12:17:02;;;;;;;3.47;3.28;;;;;;;;;;5008737;28;20233;-81
2023/02/25 12:19:49;;;;;;;5.32;5.05;;;;;;;;;;5015847;28;20228;-82
2023/02/25 12:22:42;;;;;;;6.15;5.85;;;;;;;;;;5017906;28;20256;-81
2023/02/25 12:25:16;;;;;;;3.83;3.63;;;;;;;;;;5025045;28;20236;-80
2023/02/25 12:28:00;;;;;;;4.20;3.97;;;;;;;;;;5022196;28;20282;-80
2023/02/25 12:30:37;;;;;;;8.38;7.95;;;;;;;;;;5018855;28;20239;-80
2023/02/25 12:33:11;;;;;;;4.07;3.88;;;;;;;;;;5012596;28;20250;-79
2023/02/25 12:35:54;;;;;;;3.55;3.35;;;;;;;;;;5021433;28;20287;-82
2023/02/25 12:38:40;;;;;;;4.75;4.55;;;;;;;;;;5012725;28;20224;-79
2023/02/25 12:41:18;;;;;;;5.28;5.03;;;;;;;;;;5025629;28;20232;-81
2023/02/25 12:43:56;;;;;;;5.05;4.82;;;;;;;;;;5013137;28;20232;-81
2023/02/25 12:46:48;;;;;;;3.95;3.75;;;;;;;;;;5015968;28;20287;-81
2023/02/25 12:49:39;;;;;;;5.43;5.15;;;;;;;;;;5003696;28;20222;-81
2023/02/25 12:52:16;;;;;;;2.65;2.55;;;;;;;;;;5022603;28;20240;-81
2023/02/25 12:55:00;;;;;;;4.05;3.88;;;;;;;;;;5010962;28;20230;-81
2023/02/25 12:57:35;;;;;;;2.92;2.83;;;;;;;;;;5021683;28;20231;-81
2023/02/25 13:00:21;;;;;;;3.17;3.08;;;;;;;;;;5016361;28;20265;-79
2023/02/25 13:03:07;;;;;;;3.45;3.35;;;;;;;;;;5016679;28;20231;-80
2023/02/25 13:05:58;;;;;;;3.85;3.72;;;;;;;;;;5014177;28;20269;-81
2023/02/25 13:08:54;;;;;;;5.38;5.10;;;;;;;;;;5010139;28;20246;-78
2023/02/25 13:11:34;;;;;;;4.22;4.03;;;;;;;;;;5018631;28;20293;-80
2023/02/25 13:14:16;;;;;;;5.22;4.93;;;;;;;;;;5020383;28;20532;-81
2023/02/25 13:17:05;;;;;;;5.40;5.10;;;;;;;;;;5017146;28;20254;-80
2023/02/25 13:19:56;;;;;;;3.80;3.60;;;;;;;;;;5011292;28;20239;-79
2023/02/25 13:22:46;;;;;;;4.60;4.40;;;;;;;;;;5012086;28;20230;-80
2023/02/25 13:25:27;;;;;;;2.17;2.08;;;;;;;;;;5014287;28;20227;-78
2023/02/25 13:28:17;;;;;;;2.28;2.17;;;;;;;;;;5013902;28;20234;-79
2023/02/25 13:30:53;;;;;;;1.90;1.80;;;;;;;;;;5019256;28;20227;-80
2023/02/25 13:33:38;;;;;;;2.80;2.70;;;;;;;;;;5020107;28;20253;-81
2023/02/25 13:36:12;;;;;;;2.47;2.38;;;;;;;;;;5017879;28;20239;-80
2023/02/25 13:38:58;;;;;;;3.13;3.03;;;;;;;;;;5022271;28;20261;-81
2023/02/25 13:41:36;;;;;;;2.92;2.83;;;;;;;;;;5017261;28;20231;-78
2023/02/25 13:44:19;;;;;;;3.50;3.33;;;;;;;;;;5009773;28;20242;-81
2023/02/25 13:47:06;;;;;;;3.25;3.10;;;;;;;;;;5010317;28;20244;-79
2023/02/25 13:49:54;;;;;;;2.92;2.83;;;;;;;;;;5009539;28;20228;-81
2023/02/25 13:52:26;;;;;;;2.03;1.92;;;;;;;;;;5018132;28;20314;-81
2023/02/25 13:55:12;;;;;;;1.45;1.45;;;;;;;;;;5026986;28;20274;-81
2023/02/25 13:57:54;;;;;;;4.30;4.10;;;;;;;;;;5006837;28;20669;-81
2023/02/25 14:00:36;;;;;;;3.03;2.92;;;;;;;;;;5012874;28;20269;-79
2023/02/25 14:03:17;;;;;;;3.05;2.95;;;;;;;;;;5002248;28;20230;-80
2023/02/25 14:06:02;;;;;;;2.40;2.30;;;;;;;;;;5025296;28;20231;-81
2023/02/25 14:08:48;;;;;;;3.08;2.97;;;;;;;;;;5022341;28;20230;-80
2023/02/25 14:11:36;;;;;;;5.07;4.78;;;;;;;;;;5007289;28;20223;-80
2023/02/25 14:14:25;;;;;;;5.03;4.72;;;;;;;;;;5020186;28;20230;-80
2023/02/25 14:17:12;;;;;;;4.53;4.32;;;;;;;;;;5020732;28;20261;-80
2023/02/25 14:19:44;;;;;;;4.88;4.57;;;;;;;;;;5018972;28;20305;-79
2023/02/25 14:22:25;;;;;;;2.80;2.60;;;;;;;;;;5019452;28;20227;-80
2023/02/25 14:24:57;;;;;;;3.60;3.40;;;;;;;;;;5025294;28;20264;-79
2023/02/25 14:27:38;;;;;;;2.50;2.40;;;;;;;;;;5024571;28;20242;-78
2023/02/25 14:30:16;;;;;;;5.43;5.13;;;;;;;;;;5015758;28;20248;-80
2023/02/25 14:32:50;;;;;;;3.65;3.45;;;;;;;;;;5020230;28;20251;-80
2023/02/25 14:35:26;;;;;;;4.95;4.65;;;;;;;;;;5016984;28;20239;-79
2023/02/25 14:37:58;;;;;;;4.60;4.30;;;;;;;;;;5022675;28;20265;-80
2023/02/25 14:40:30;;;;;;;3.35;3.15;;;;;;;;;;5016019;28;20238;-80
2023/02/25 14:43:12;;;;;;;4.57;4.28;;;;;;;;;;5018102;28;20293;-80
2023/02/25 14:45:47;;;;;;;5.93;5.63;;;;;;;;;;5013846;28;20235;-79
2023/02/25 14:48:18;;;;;;;6.95;6.55;;;;;;;;;;5017090;28;20265;-79
2023/02/25 14:50:49;;;;;;;3.55;3.35;;;;;;;;;;5014736;28;20235;-81
2023/02/25 14:53:26;;;;;;;3.35;3.15;;;;;;;;;;5013538;28;20251;-81
2023/02/25 14:56:11;;;;;;;3.25;3.05;;;;;;;;;;5014592;28;20247;-79
2023/02/25 14:58:52;;;;;;;2.80;2.65;;;;;;;;;;5011413;28;20418;-79
2023/02/25 15:01:51;;;;;;;2.60;2.50;;;;;;;;;;5011681;28;20229;-80
2023/02/25 15:04:38;;;;;;;3.55;3.35;;;;;;;;;;5015124;28;20230;-80
2023/02/25 15:07:15;;;;;;;3.50;3.30;;;;;;;;;;5015415;28;20307;-77
2023/02/25 15:10:03;;;;;;;3.60;3.42;;;;;;;;;;5015004;28;20240;-80
2023/02/25 15:12:54;;;;;;;2.33;2.22;;;;;;;;;;5008097;28;20352;-81
2023/02/25 15:16:04;;;;;;;3.85;3.65;;;;;;;;;;5012810;28;20691;-80